Xainza, China
Current Conditions -  °F | °C
As of 11:50 AM on Friday 28 Nov 2014 (Local Time) from VNKT Reporting Station
Haze Haze  
Wind Chill: 55°   Ceiling: 10000
Heat Index: 55°   Visibility: 1.8mi
Dew Point: 50°   Wind: 0mph
Humidity: 82%   Direction: NA
Pressure: 30.12"   Gusts: NA
Location:  30.95°N, 88.63°E
Report Text: VNKT 280350Z 00000KT 3000 BR FEW015 SCT030 BKN100 13/10 Q1020 BECMG FM 0450Z 4000 BR
Loading
Personal Weather Stations






























Interactive Weather Map New forecast layout! Learn more

10-Day Weather Forecast

Advertisements
Track Severe Weather on mobile